createdAt,value
2022-10-10T00:01:34.325Z,98211.72
2022-10-10T00:03:37.550Z,98221.31
2022-10-10T00:05:41.074Z,98221.44
2022-10-10T00:07:44.391Z,98225.94
2022-10-10T00:09:47.468Z,98215.59
2022-10-10T00:11:50.434Z,98226.06
2022-10-10T00:13:53.774Z,98220.94
2022-10-10T00:15:56.869Z,98217.38
2022-10-10T00:18:01.282Z,98220.94
2022-10-10T00:20:04.952Z,98223.75
2022-10-10T00:22:07.865Z,98221.25
2022-10-10T00:24:10.903Z,98222.34
2022-10-10T00:26:18.955Z,98219.59
2022-10-10T00:28:22.389Z,98211.03
2022-10-10T00:30:25.521Z,98217.22
2022-10-10T00:32:28.660Z,98222.53
2022-10-10T00:34:33.021Z,98206.97
2022-10-10T00:36:35.991Z,98206.97
2022-10-10T00:38:39.034Z,98209.69
2022-10-10T00:40:46.151Z,98211.25
2022-10-10T00:42:49.463Z,98206.88
2022-10-10T00:45:31.260Z,98205.19
2022-10-10T00:47:34.774Z,98206.13
2022-10-10T00:49:43.137Z,98207.09
2022-10-10T00:51:47.212Z,98206.22
2022-10-10T00:53:52.252Z,98207.81
2022-10-10T00:55:55.437Z,98218.56
2022-10-10T00:57:58.596Z,98203.84
2022-10-10T01:00:02.218Z,98210.72
2022-10-10T01:02:05.839Z,98208.94
2022-10-10T01:04:30.888Z,98208.84
2022-10-10T01:06:35.607Z,98202.91
2022-10-10T01:08:38.738Z,98197.78
2022-10-10T01:10:50.791Z,98196.84
2022-10-10T01:13:12.518Z,98193.28
2022-10-10T01:15:20.599Z,98192.34
2022-10-10T01:17:27.511Z,98196.63
2022-10-10T01:20:10.222Z,98200.19
2022-10-10T01:22:22.222Z,98199.25
2022-10-10T01:24:38.208Z,98194.03
2022-10-10T01:27:20.101Z,98196.63
2022-10-10T01:29:28.439Z,98187.22
2022-10-10T01:31:32.659Z,98186.41
2022-10-10T01:33:44.504Z,98190.66
2022-10-10T01:35:51.965Z,98186.19
2022-10-10T01:38:00.374Z,98191.31
2022-10-10T01:40:10.786Z,98189.50
2022-10-10T01:42:17.716Z,98187.84
2022-10-10T01:44:23.778Z,98184.06
2022-10-10T01:46:27.427Z,98173.84
2022-10-10T01:48:31.896Z,98179.91
2022-10-10T01:50:44.090Z,98186.78
2022-10-10T01:52:53.883Z,98178.84
2022-10-10T01:55:11.540Z,98178.97
2022-10-10T01:57:21.271Z,98179.91
2022-10-10T01:59:35.164Z,98180.75
2022-10-10T02:01:43.356Z,98174.78
2022-10-10T02:03:48.688Z,98177.38
2022-10-10T02:05:54.830Z,98182.59
2022-10-10T02:07:59.552Z,98173.13
2022-10-10T02:10:05.047Z,98179.28
2022-10-10T02:12:09.587Z,98175.75
2022-10-10T02:14:16.316Z,98173.84
2022-10-10T02:16:24.570Z,98177.16
2022-10-10T02:18:30.801Z,98170.28
2022-10-10T02:20:34.212Z,98162.34
2022-10-10T02:22:38.225Z,98161.50
2022-10-10T02:24:41.270Z,98165.69
2022-10-10T02:26:46.965Z,98159.53
2022-10-10T02:28:54.043Z,98173.41
2022-10-10T02:31:00.737Z,98158.56
2022-10-10T02:33:06.790Z,98169.75
2022-10-10T02:35:11.886Z,98166.28
2022-10-10T02:37:16.801Z,98168.19
2022-10-10T02:39:23.095Z,98165.69
2022-10-10T02:41:26.520Z,98172.59
2022-10-10T02:43:29.496Z,98167.47
2022-10-10T02:45:33.175Z,98171.72
2022-10-10T02:47:36.086Z,98178.63
2022-10-10T02:49:42.040Z,98181.25
2022-10-10T02:51:45.037Z,98181.25
2022-10-10T02:53:47.974Z,98178.75
2022-10-10T02:55:50.977Z,98180.53
2022-10-10T02:57:54.073Z,98180.53
2022-10-10T02:59:57.190Z,98184.56
2022-10-10T03:02:00.149Z,98179.47
2022-10-10T03:04:03.251Z,98182.81
2022-10-10T03:06:08.338Z,98180.19
2022-10-10T03:08:11.977Z,98168.91
2022-10-10T03:10:15.014Z,98176.75
2022-10-10T03:12:18.242Z,98170.59
2022-10-10T03:14:21.173Z,98170.47
2022-10-10T03:16:24.146Z,98171.28
2022-10-10T03:18:27.129Z,98167.84
2022-10-10T03:20:30.083Z,98171.41
2022-10-10T03:22:34.438Z,98170.59
2022-10-10T03:24:37.407Z,98172.38
2022-10-10T03:26:40.327Z,98166.19
2022-10-10T03:28:43.395Z,98180.06
2022-10-10T03:30:47.094Z,98176.63
2022-10-10T03:32:50.281Z,98182.69
2022-10-10T03:34:53.413Z,98178.41
2022-10-10T03:36:56.374Z,98175.09
2022-10-10T03:39:00.749Z,98178.63
2022-10-10T03:41:03.786Z,98178.63
2022-10-10T03:43:09.063Z,98175.91
2022-10-10T03:45:12.056Z,98176.75
2022-10-10T03:47:14.998Z,98171.50
2022-10-10T03:49:17.955Z,98175.19
2022-10-10T03:51:21.156Z,98167.38
2022-10-10T03:53:24.289Z,98164.75
2022-10-10T03:55:28.800Z,98165.56
2022-10-10T03:57:31.758Z,98164.63
2022-10-10T03:59:34.761Z,98170.78
2022-10-10T04:01:37.835Z,98169.00
2022-10-10T04:03:41.392Z,98170.09
2022-10-10T04:05:44.358Z,98166.72
2022-10-10T04:07:47.290Z,98160.78
2022-10-10T04:09:50.308Z,98168.00
2022-10-10T04:11:54.624Z,98165.63
2022-10-10T04:13:57.603Z,98162.16
2022-10-10T04:16:00.965Z,98162.16
2022-10-10T04:18:04.018Z,98156.94
2022-10-10T04:20:07.464Z,98161.31
2022-10-10T04:22:11.365Z,98155.38
2022-10-10T04:24:14.361Z,98153.59
2022-10-10T04:26:17.885Z,98157.16
2022-10-10T04:28:22.327Z,98160.72
2022-10-10T04:30:25.934Z,98158.09
2022-10-10T04:32:29.003Z,98164.25
2022-10-10T04:34:31.956Z,98160.81
2022-10-10T04:36:34.926Z,98164.25
2022-10-10T04:38:38.232Z,98171.34
2022-10-10T04:40:41.104Z,98167.06
2022-10-10T04:42:44.089Z,98159.22
2022-10-10T04:44:48.599Z,98148.16
2022-10-10T04:46:51.699Z,98152.53
2022-10-10T04:48:54.664Z,98157.75
2022-10-10T04:51:00.017Z,98156.94
2022-10-10T04:53:02.983Z,98157.97
2022-10-10T04:55:06.789Z,98160.69
2022-10-10T04:57:09.777Z,98169.38
2022-10-10T04:59:12.780Z,98168.53
2022-10-10T05:01:17.115Z,98170.31
2022-10-10T05:03:20.238Z,98168.53
2022-10-10T05:05:23.235Z,98167.81
2022-10-10T05:07:26.286Z,98166.88
2022-10-10T05:09:29.207Z,98162.47
2022-10-10T05:11:32.298Z,98160.09
2022-10-10T05:13:35.377Z,98159.47
2022-10-10T05:15:39.143Z,98169.09
2022-10-10T05:17:43.409Z,98165.50
2022-10-10T05:19:46.387Z,98166.47
2022-10-10T05:21:49.330Z,98163.13
2022-10-10T05:23:52.297Z,98164.81
2022-10-10T05:25:55.324Z,98167.19
2022-10-10T05:27:58.287Z,98167.19
2022-10-10T05:30:01.161Z,98169.81
2022-10-10T05:32:09.165Z,98162.91
2022-10-10T05:34:15.497Z,98158.75
2022-10-10T05:36:18.517Z,98158.88
2022-10-10T05:38:21.416Z,98164.91
2022-10-10T05:40:24.376Z,98158.88
2022-10-10T05:42:27.316Z,98161.47
2022-10-10T05:44:31.668Z,98169.31
2022-10-10T05:46:34.669Z,98162.28
2022-10-10T05:48:37.607Z,98167.63
2022-10-10T05:50:48.429Z,98168.44
2022-10-10T05:52:51.719Z,98170.94
2022-10-10T05:54:54.928Z,98170.13
2022-10-10T05:56:57.922Z,98172.84
2022-10-10T05:59:00.899Z,98180.78
2022-10-10T06:01:06.991Z,98181.00
2022-10-10T06:03:13.775Z,98185.38
2022-10-10T06:05:16.860Z,98187.16
2022-10-10T06:07:21.216Z,98188.94
2022-10-10T06:09:24.216Z,98191.34
2022-10-10T06:11:27.369Z,98194.66
2022-10-10T06:13:30.352Z,98201.66
2022-10-10T06:15:33.298Z,98201.66
2022-10-10T06:17:36.287Z,98197.47
2022-10-10T06:19:39.231Z,98197.47
2022-10-10T06:21:42.199Z,98196.66
2022-10-10T06:23:46.789Z,98205.22
2022-10-10T06:25:52.851Z,98206.06
2022-10-10T06:27:55.834Z,98203.97
2022-10-10T06:29:58.752Z,98208.13
2022-10-10T06:32:01.884Z,98208.75
2022-10-10T06:34:04.995Z,98207.38
2022-10-10T06:36:09.135Z,98215.75
2022-10-10T06:38:12.778Z,98214.16
2022-10-10T06:40:17.325Z,98214.38
2022-10-10T06:42:20.449Z,98213.91
2022-10-10T06:44:30.764Z,98214.91
2022-10-10T06:46:37.126Z,98224.47
2022-10-10T06:48:40.152Z,98227.03
2022-10-10T06:50:43.423Z,98233.38
2022-10-10T06:52:46.698Z,98230.78
2022-10-10T06:54:49.716Z,98240.53
2022-10-10T06:56:54.212Z,98233.59
2022-10-10T06:58:57.240Z,98235.50
2022-10-10T07:01:01.844Z,98244.50
2022-10-10T07:03:05.026Z,98240.97
2022-10-10T07:05:08.962Z,98246.19
2022-10-10T07:07:11.906Z,98257.38
2022-10-10T07:09:15.004Z,98256.44
2022-10-10T07:11:18.112Z,98244.91
2022-10-10T07:13:22.946Z,98240.41
2022-10-10T07:15:26.025Z,98238.63
2022-10-10T07:17:29.157Z,98253.88
2022-10-10T07:19:32.152Z,98245.53
2022-10-10T07:21:35.229Z,98263.22
2022-10-10T07:23:39.412Z,98260.41
2022-10-10T07:25:44.675Z,98267.81
2022-10-10T07:27:47.727Z,98269.47
2022-10-10T07:29:52.089Z,98264.56
2022-10-10T07:31:55.149Z,98265.09
2022-10-10T07:33:58.283Z,98271.00
2022-10-10T07:36:01.688Z,98285.63
2022-10-10T07:38:04.838Z,98276.56
2022-10-10T07:40:09.637Z,98280.25
2022-10-10T07:42:12.714Z,98274.31
2022-10-10T07:44:15.775Z,98281.03
2022-10-10T07:46:21.384Z,98284.63
2022-10-10T07:48:25.600Z,98285.16
2022-10-10T07:50:28.760Z,98290.09
2022-10-10T07:52:31.799Z,98286.50
2022-10-10T07:54:34.925Z,98282.06
2022-10-10T07:56:40.574Z,98280.13
2022-10-10T07:58:43.608Z,98287.47
2022-10-10T08:00:46.638Z,98284.00
2022-10-10T08:02:52.186Z,98288.88
2022-10-10T08:04:55.224Z,98293.75
2022-10-10T08:06:58.253Z,98288.47
2022-10-10T08:09:01.216Z,98292.09
2022-10-10T08:11:05.660Z,98292.19
2022-10-10T08:13:08.612Z,98284.97
2022-10-10T08:17:14.895Z,98309.22
2022-10-10T08:19:19.266Z,98291.78
2022-10-10T08:21:22.401Z,98293.66
2022-10-10T08:23:25.365Z,98287.53
2022-10-10T08:25:28.366Z,98296.66
2022-10-10T08:27:31.563Z,98296.38
2022-10-10T08:29:34.812Z,98282.88
2022-10-10T08:31:38.098Z,98284.69
2022-10-10T08:33:42.738Z,98276.66
2022-10-10T08:35:47.156Z,98279.84
2022-10-10T08:37:50.829Z,98276.00
2022-10-10T08:39:53.819Z,98278.75
2022-10-10T08:41:58.873Z,98280.44
2022-10-10T08:44:03.450Z,98279.34
2022-10-10T08:46:11.388Z,98279.47
2022-10-10T08:48:16.507Z,98280.03
2022-10-10T08:50:23.318Z,98277.53
2022-10-10T08:52:31.353Z,98272.09
2022-10-10T08:54:36.021Z,98272.94
2022-10-10T08:56:39.572Z,98275.72
2022-10-10T08:58:46.313Z,98281.69
2022-10-10T09:00:51.811Z,98285.00
2022-10-10T09:02:57.324Z,98292.38
2022-10-10T09:05:00.613Z,98296.56
2022-10-10T09:07:15.044Z,98302.34
2022-10-10T09:09:27.384Z,98294.78
2022-10-10T09:11:43.459Z,98288.84
2022-10-10T09:13:50.654Z,98285.63
2022-10-10T09:15:56.747Z,98280.84
2022-10-10T09:18:05.796Z,98291.56
2022-10-10T09:20:19.744Z,98290.44
2022-10-10T09:22:24.736Z,98299.09
2022-10-10T09:24:33.281Z,98298.66
2022-10-10T09:26:39.654Z,98301.59
2022-10-10T09:28:46.744Z,98305.53
2022-10-10T09:30:52.239Z,98300.75
2022-10-10T09:33:00.002Z,98303.91
2022-10-10T09:35:08.995Z,98309.13
2022-10-10T09:37:24.404Z,98312.91
2022-10-10T09:39:44.012Z,98320.84
2022-10-10T09:41:49.026Z,98314.13
2022-10-10T09:43:56.609Z,98313.06
2022-10-10T09:45:59.703Z,98320.66
2022-10-10T09:48:02.725Z,98323.09
2022-10-10T09:50:06.319Z,98319.28
2022-10-10T09:52:23.619Z,98321.06
2022-10-10T09:54:26.549Z,98323.47
2022-10-10T09:56:32.574Z,98321.75
2022-10-10T09:58:38.134Z,98316.56
2022-10-10T10:00:41.226Z,98322.97
2022-10-10T10:02:44.301Z,98329.53
2022-10-10T10:04:47.757Z,98329.88
2022-10-10T10:06:52.374Z,98327.66
2022-10-10T10:08:55.416Z,98330.13
2022-10-10T10:10:59.421Z,98325.53
2022-10-10T10:13:04.107Z,98332.06
2022-10-10T10:15:17.287Z,98338.06
2022-10-10T10:17:23.805Z,98332.13
2022-10-10T10:19:31.625Z,98322.53
2022-10-10T10:21:49.660Z,98325.53
2022-10-10T10:23:55.321Z,98323.75
2022-10-10T10:26:00.197Z,98333.22
2022-10-10T10:28:21.583Z,98320.13
2022-10-10T10:30:26.149Z,98330.03
2022-10-10T10:32:41.519Z,98329.84
2022-10-10T10:35:02.064Z,98322.22
2022-10-10T10:37:14.925Z,98316.53
2022-10-10T10:39:30.356Z,98310.53
2022-10-10T10:41:38.538Z,98313.34
2022-10-10T10:44:01.548Z,98322.31
2022-10-10T10:46:11.005Z,98326.28
2022-10-10T10:48:22.633Z,98326.50
2022-10-10T10:50:42.071Z,98320.72
2022-10-10T10:52:57.966Z,98332.53
2022-10-10T10:55:13.016Z,98325.44
2022-10-10T10:57:45.816Z,98318.50
2022-10-10T11:00:21.097Z,98317.16
2022-10-10T11:02:54.797Z,98317.78
2022-10-10T11:05:21.230Z,98314.66
2022-10-10T11:07:30.560Z,98301.88
2022-10-10T11:09:49.793Z,98297.38
2022-10-10T11:12:04.722Z,98300.84
2022-10-10T11:14:19.257Z,98292.41
2022-10-10T11:19:00.412Z,98295.38
2022-10-10T11:21:06.155Z,98292.06
2022-10-10T11:23:12.222Z,98289.75
2022-10-10T11:25:20.252Z,98293.06
2022-10-10T11:27:27.456Z,98290.59
2022-10-10T11:29:34.373Z,98289.09
2022-10-10T11:31:41.377Z,98284.97
2022-10-10T11:33:47.261Z,98292.59
2022-10-10T11:35:54.647Z,98285.31
2022-10-10T11:38:01.302Z,98286.16
2022-10-10T11:40:06.253Z,98286.97
2022-10-10T11:42:15.132Z,98286.31
2022-10-10T11:44:20.781Z,98285.63
2022-10-10T11:46:28.895Z,98289.78
2022-10-10T11:48:40.516Z,98280.00
2022-10-10T11:50:44.200Z,98280.53
2022-10-10T11:52:54.113Z,98271.53
2022-10-10T11:55:00.674Z,98270.22
2022-10-10T11:57:12.725Z,98275.50
2022-10-10T11:59:19.033Z,98269.38
2022-10-10T12:01:27.828Z,98264.56
2022-10-10T12:03:30.917Z,98259.94
2022-10-10T12:05:38.731Z,98258.78
2022-10-10T12:07:45.294Z,98258.78
2022-10-10T12:09:52.226Z,98261.59
2022-10-10T12:11:58.051Z,98261.25
2022-10-10T12:14:02.436Z,98262.94
2022-10-10T12:16:08.555Z,98260.94
2022-10-10T12:18:24.531Z,98263.41
2022-10-10T12:20:33.756Z,98260.09
2022-10-10T12:22:38.513Z,98258.78
2022-10-10T12:25:07.056Z,98257.63
2022-10-10T12:27:26.856Z,98259.44
2022-10-10T12:29:42.810Z,98249.00
2022-10-10T12:31:45.812Z,98256.63
2022-10-10T12:34:07.760Z,98256.63
2022-10-10T12:37:07.529Z,98258.97
2022-10-10T12:39:37.912Z,98250.81
2022-10-10T12:41:55.790Z,98247.16
2022-10-10T12:44:21.065Z,98245.19
2022-10-10T12:46:34.521Z,98248.50
2022-10-10T12:48:37.912Z,98250.00
2022-10-10T12:50:42.042Z,98242.03
2022-10-10T12:52:48.916Z,98245.50
2022-10-10T12:54:54.000Z,98241.03
2022-10-10T12:57:06.885Z,98244.53
2022-10-10T12:59:23.547Z,98245.34
2022-10-10T13:01:29.188Z,98253.13
2022-10-10T13:03:33.964Z,98246.69
2022-10-10T13:05:38.399Z,98251.31
2022-10-10T13:07:41.908Z,98253.63
2022-10-10T13:09:46.890Z,98254.47
2022-10-10T13:11:59.408Z,98250.97
2022-10-10T13:14:09.622Z,98247.66
2022-10-10T13:16:15.865Z,98248.31
2022-10-10T13:18:34.156Z,98246.19
2022-10-10T13:20:38.913Z,98249.66
2022-10-10T13:22:46.411Z,98250.47
2022-10-10T13:24:51.007Z,98245.66
2022-10-10T13:26:54.612Z,98244.00
2022-10-10T13:29:01.955Z,98239.50
2022-10-10T13:31:05.410Z,98243.03
2022-10-10T13:33:14.138Z,98242.16
2022-10-10T13:35:18.912Z,98240.38
2022-10-10T13:37:22.134Z,98247.66
2022-10-10T13:39:25.645Z,98244.16
2022-10-10T13:41:29.178Z,98238.69
2022-10-10T13:43:33.695Z,98244.00
2022-10-10T13:45:40.157Z,98246.00
2022-10-10T13:47:51.621Z,98252.31
2022-10-10T13:49:56.152Z,98248.47
2022-10-10T13:52:04.551Z,98240.50
2022-10-10T13:54:44.900Z,98243.34
2022-10-10T13:56:47.974Z,98243.53
2022-10-10T13:58:52.825Z,98242.03
2022-10-10T14:00:58.697Z,98236.06
2022-10-10T14:03:01.795Z,98241.03
2022-10-10T14:05:06.703Z,98241.84
2022-10-10T14:07:14.365Z,98248.47
2022-10-10T14:09:23.349Z,98244.81
2022-10-10T14:11:28.660Z,98247.34
2022-10-10T14:13:33.715Z,98246.00
2022-10-10T14:15:44.453Z,98239.38
2022-10-10T14:17:48.807Z,98244.19
2022-10-10T14:19:52.687Z,98243.84
2022-10-10T14:21:55.830Z,98243.69
2022-10-10T14:23:58.941Z,98247.34
2022-10-10T14:26:01.995Z,98244.19
2022-10-10T14:28:05.148Z,98240.34
2022-10-10T14:30:09.186Z,98244.03
2022-10-10T14:32:12.500Z,98238.88
2022-10-10T14:34:16.953Z,98244.19
2022-10-10T14:36:20.038Z,98247.00
2022-10-10T14:38:23.494Z,98241.88
2022-10-10T14:40:28.122Z,98236.22
2022-10-10T14:42:31.397Z,98247.00
2022-10-10T14:44:34.615Z,98246.34
2022-10-10T14:46:37.755Z,98241.19
2022-10-10T14:48:40.882Z,98241.03
2022-10-10T14:50:46.996Z,98241.03
2022-10-10T14:52:50.013Z,98235.25
2022-10-10T14:54:53.107Z,98243.19
2022-10-10T14:57:06.611Z,98244.19
2022-10-10T14:59:17.985Z,98243.69
2022-10-10T15:01:40.916Z,98244.69
2022-10-10T15:03:43.922Z,98249.81
2022-10-10T15:05:48.898Z,98243.88
2022-10-10T15:07:53.735Z,98248.31
2022-10-10T15:10:31.662Z,98247.66
2022-10-10T15:12:20.106Z,98244.38
2022-10-10T15:14:24.270Z,98242.53
2022-10-10T15:16:27.659Z,98247.00
2022-10-10T15:18:53.302Z,98240.19
2022-10-10T15:20:55.262Z,98243.03
2022-10-10T15:22:59.218Z,98254.63
2022-10-10T15:25:02.271Z,98257.63
2022-10-10T15:27:05.478Z,98252.50
2022-10-10T15:29:08.491Z,98262.25
2022-10-10T15:31:11.491Z,98262.75
2022-10-10T15:33:14.703Z,98258.44
2022-10-10T15:35:19.872Z,98256.94
2022-10-10T15:37:25.379Z,98262.59
2022-10-10T15:39:28.857Z,98257.44
2022-10-10T15:41:32.267Z,98260.09
2022-10-10T15:43:44.491Z,98269.03
2022-10-10T15:45:56.223Z,98269.53
2022-10-10T15:47:59.830Z,98278.13
2022-10-10T15:50:03.075Z,98268.84
2022-10-10T15:52:06.368Z,98270.81
2022-10-10T15:54:11.124Z,98269.19
2022-10-10T15:56:17.786Z,98270.97
2022-10-10T15:58:20.800Z,98267.97
2022-10-10T16:00:23.951Z,98271.25
2022-10-10T16:02:27.103Z,98261.16
2022-10-10T16:04:30.566Z,98272.06
2022-10-10T16:06:33.608Z,98262.81
2022-10-10T16:08:37.042Z,98264.25
2022-10-10T16:10:42.804Z,98271.72
2022-10-10T16:12:45.772Z,98278.31
2022-10-10T16:14:49.003Z,98272.50
2022-10-10T16:16:52.000Z,98280.94
2022-10-10T16:18:55.273Z,98279.75
2022-10-10T16:20:58.474Z,98277.56
2022-10-10T16:23:01.552Z,98279.72
2022-10-10T16:27:30.060Z,98279.84
2022-10-10T16:29:33.100Z,98278.97
2022-10-10T16:31:38.999Z,98291.84
2022-10-10T16:33:42.947Z,98292.16
2022-10-10T16:35:46.010Z,98291.78
2022-10-10T16:37:49.124Z,98297.16
2022-10-10T16:39:52.198Z,98292.81
2022-10-10T16:41:55.228Z,98296.78
2022-10-10T16:43:59.753Z,98298.88
2022-10-10T16:46:03.644Z,98307.13
2022-10-10T16:48:06.882Z,98310.94
2022-10-10T16:50:10.782Z,98302.63
2022-10-10T16:52:13.930Z,98297.78
2022-10-10T16:54:17.110Z,98299.06
2022-10-10T16:56:21.849Z,98296.91
2022-10-10T16:58:24.796Z,98308.59
2022-10-10T17:00:29.199Z,98304.47
2022-10-10T17:02:32.367Z,98301.28
2022-10-10T17:04:35.715Z,98300.75
2022-10-10T17:06:38.823Z,98295.09
2022-10-10T17:08:43.463Z,98300.00
2022-10-10T17:10:46.532Z,98299.63
2022-10-10T17:12:49.687Z,98298.56
2022-10-10T17:14:52.727Z,98301.50
2022-10-10T17:17:11.591Z,98305.56
2022-10-10T17:19:15.806Z,98313.97
2022-10-10T17:21:20.037Z,98310.38
2022-10-10T17:23:23.050Z,98317.66
2022-10-10T17:25:26.519Z,98315.44
2022-10-10T17:27:29.496Z,98317.03
2022-10-10T17:29:32.528Z,98321.91
2022-10-10T17:31:37.820Z,98322.50
2022-10-10T17:33:42.813Z,98323.94
2022-10-10T17:35:48.382Z,98323.69
2022-10-10T17:37:51.482Z,98325.81
2022-10-10T17:39:55.543Z,98323.44
2022-10-10T17:41:58.645Z,98328.34
2022-10-10T17:44:01.699Z,98332.09
2022-10-10T17:46:32.589Z,98328.94
2022-10-10T17:48:30.615Z,98327.56
2022-10-10T17:50:35.922Z,98335.09
2022-10-10T17:52:40.495Z,98336.31
2022-10-10T17:54:43.856Z,98341.06
2022-10-10T17:56:47.044Z,98338.84
2022-10-10T17:58:50.672Z,98336.63
2022-10-10T18:00:53.913Z,98337.88
2022-10-10T18:02:56.972Z,98338.22
2022-10-10T18:05:00.106Z,98337.78
2022-10-10T18:07:04.535Z,98341.41
2022-10-10T18:09:07.826Z,98338.06
2022-10-10T18:11:13.758Z,98334.06
2022-10-10T18:13:17.051Z,98335.03
2022-10-10T18:15:20.075Z,98338.78
2022-10-10T18:17:23.233Z,98346.69
2022-10-10T18:19:26.248Z,98334.66
2022-10-10T18:21:29.339Z,98340.22
2022-10-10T18:23:34.086Z,98351.72
2022-10-10T18:25:37.144Z,98352.69
2022-10-10T18:27:40.225Z,98340.63
2022-10-10T18:29:43.289Z,98357.56
2022-10-10T18:31:46.419Z,98348.97
2022-10-10T18:33:49.686Z,98351.75
2022-10-10T18:35:52.725Z,98361.72
2022-10-10T18:37:55.747Z,98359.38
2022-10-10T18:40:00.249Z,98362.47
2022-10-10T18:42:03.307Z,98369.53
2022-10-10T18:44:08.235Z,98366.47
2022-10-10T18:46:12.835Z,98374.53
2022-10-10T18:48:15.900Z,98369.53
2022-10-10T18:50:19.468Z,98366.34
2022-10-10T18:52:24.233Z,98366.63
2022-10-10T18:54:30.151Z,98373.00
2022-10-10T18:56:35.098Z,98377.59
2022-10-10T18:58:38.791Z,98378.69
2022-10-10T19:00:41.850Z,98395.06
2022-10-10T19:02:44.903Z,98438.31
2022-10-10T19:04:48.390Z,98425.28
2022-10-10T19:06:57.052Z,98422.22
2022-10-10T19:09:01.665Z,98436.25
2022-10-10T19:11:06.206Z,98440.81
2022-10-10T19:13:10.867Z,98444.44
2022-10-10T19:15:14.765Z,98436.66
2022-10-10T19:17:17.817Z,98426.00
2022-10-10T19:19:21.578Z,98413.06
2022-10-10T19:21:25.311Z,98403.91
2022-10-10T19:23:29.058Z,98395.59
2022-10-10T19:25:32.964Z,98403.09
2022-10-10T19:27:36.385Z,98400.22
2022-10-10T19:29:41.249Z,98416.56
2022-10-10T19:31:44.432Z,98416.44
2022-10-10T19:33:52.527Z,98416.28
2022-10-10T19:35:55.954Z,98417.28
2022-10-10T19:37:59.303Z,98420.06
2022-10-10T19:40:02.766Z,98431.16
2022-10-10T19:42:06.126Z,98417.69
2022-10-10T19:44:09.350Z,98403.69
2022-10-10T19:46:15.821Z,98406.47
2022-10-10T19:48:20.734Z,98411.88
2022-10-10T19:50:24.018Z,98405.06
2022-10-10T19:52:28.139Z,98406.75
2022-10-10T19:54:32.241Z,98418.13
2022-10-10T19:56:36.681Z,98424.22
2022-10-10T19:58:39.847Z,98435.75
2022-10-10T20:00:42.839Z,98434.75
2022-10-10T20:02:49.244Z,98446.16
2022-10-10T20:04:52.786Z,98446.28
2022-10-10T20:06:56.317Z,98465.03
2022-10-10T20:08:59.587Z,98480.00
2022-10-10T20:11:03.215Z,98497.44
2022-10-10T20:13:06.395Z,98492.97
2022-10-10T20:15:10.543Z,98510.22
2022-10-10T20:17:13.887Z,98521.56
2022-10-10T20:19:18.592Z,98515.47
2022-10-10T20:21:25.472Z,98508.25
2022-10-10T20:23:28.805Z,98508.25
2022-10-10T20:25:32.090Z,98509.09
2022-10-10T20:27:36.211Z,98502.16
2022-10-10T20:29:39.484Z,98516.44
2022-10-10T20:31:43.771Z,98519.34
2022-10-10T20:33:47.202Z,98501.16
2022-10-10T20:35:55.955Z,98492.56
2022-10-10T20:37:59.467Z,98508.63
2022-10-10T20:40:02.543Z,98539.53
2022-10-10T20:42:05.743Z,98547.16
2022-10-10T20:44:11.542Z,98541.31
2022-10-10T20:46:16.347Z,98547.56
2022-10-10T20:48:21.255Z,98544.22
2022-10-10T20:50:24.801Z,98545.19
2022-10-10T20:52:29.550Z,98540.88
2022-10-10T20:54:33.265Z,98537.28
2022-10-10T20:56:37.261Z,98540.59
2022-10-10T20:58:41.122Z,98537.28
2022-10-10T21:00:45.220Z,98548.91
2022-10-10T21:02:49.421Z,98557.53
2022-10-10T21:04:53.506Z,98553.78
2022-10-10T21:06:57.400Z,98545.88
2022-10-10T21:09:03.741Z,98540.59
2022-10-10T21:11:09.275Z,98550.44
2022-10-10T21:13:12.457Z,98550.44
2022-10-10T21:15:15.891Z,98541.00
2022-10-10T21:17:19.131Z,98538.50
2022-10-10T21:19:22.688Z,98538.75
2022-10-10T21:21:26.996Z,98537.50
2022-10-10T21:23:34.687Z,98552.47
2022-10-10T21:25:42.307Z,98559.66
2022-10-10T21:27:49.896Z,98554.91
2022-10-10T21:29:52.898Z,98551.44
2022-10-10T21:31:58.524Z,98561.03
2022-10-10T21:34:02.868Z,98563.53
2022-10-10T21:36:06.479Z,98566.03
2022-10-10T21:38:09.993Z,98575.72
2022-10-10T21:40:13.916Z,98578.63
2022-10-10T21:42:20.687Z,98579.34
2022-10-10T21:44:23.891Z,98574.91
2022-10-10T21:46:33.568Z,98579.09
2022-10-10T21:48:39.348Z,98578.81
2022-10-10T21:50:42.459Z,98582.28
2022-10-10T21:52:45.478Z,98585.06
2022-10-10T21:54:48.529Z,98578.97
2022-10-10T21:56:51.887Z,98586.72
2022-10-10T21:59:00.894Z,98582.53
2022-10-10T22:01:08.576Z,98585.19
2022-10-10T22:03:11.792Z,98587.69
2022-10-10T22:05:15.961Z,98594.75
2022-10-10T22:07:18.969Z,98587.25
2022-10-10T22:09:22.051Z,98599.31
2022-10-10T22:11:26.218Z,98604.56
2022-10-10T22:13:29.567Z,98599.56
2022-10-10T22:15:37.214Z,98603.31
2022-10-10T22:17:40.590Z,98604.00
2022-10-10T22:19:43.673Z,98597.91
2022-10-10T22:21:46.817Z,98606.06
2022-10-10T22:23:49.840Z,98597.06
2022-10-10T22:25:53.106Z,98597.06
2022-10-10T22:27:58.363Z,98603.88
2022-10-10T22:30:02.708Z,98603.75
2022-10-10T22:32:07.539Z,98608.75
2022-10-10T22:34:10.584Z,98613.34
2022-10-10T22:36:13.970Z,98610.69
2022-10-10T22:38:17.069Z,98615.09
2022-10-10T22:40:22.120Z,98617.88
2022-10-10T22:42:25.167Z,98620.50
2022-10-10T22:44:28.182Z,98619.94
2022-10-10T22:46:33.533Z,98616.22
2022-10-10T22:48:38.046Z,98617.19
2022-10-10T22:50:41.036Z,98614.53
2022-10-10T22:52:44.005Z,98620.75
2022-10-10T22:54:46.974Z,98622.56
2022-10-10T22:56:50.005Z,98625.06
2022-10-10T22:58:53.282Z,98625.91
2022-10-10T23:00:56.371Z,98623.28
2022-10-10T23:03:00.071Z,98629.41
2022-10-10T23:05:04.894Z,98633.09
2022-10-10T23:07:07.883Z,98635.63
2022-10-10T23:09:11.517Z,98629.53
2022-10-10T23:11:14.478Z,98637.56
2022-10-10T23:13:17.525Z,98640.31
2022-10-10T23:15:20.596Z,98635.06
2022-10-10T23:17:23.712Z,98635.06
2022-10-10T23:19:26.856Z,98636.69
2022-10-10T23:21:31.303Z,98636.13
2022-10-10T23:23:34.371Z,98634.44
2022-10-10T23:25:41.369Z,98625.03
2022-10-10T23:27:44.356Z,98636.38
2022-10-10T23:29:47.395Z,98630.28
2022-10-10T23:31:50.652Z,98626.09
2022-10-10T23:33:53.743Z,98632.44
2022-10-10T23:35:59.743Z,98628.28
2022-10-10T23:38:04.131Z,98632.84
2022-10-10T23:40:08.307Z,98633.81
2022-10-10T23:42:11.399Z,98633.81
2022-10-10T23:44:14.400Z,98632.97
2022-10-10T23:46:17.608Z,98625.19
2022-10-10T23:48:20.917Z,98627.00
2022-10-10T23:50:23.910Z,98630.72
